Time;durP1;ratioP1;P1;durP2;ratioP2;P2;SDS_P1;SDS_P2;PMS_P1;PMS_P2;Temp;Humidity;BMP_temperature;BMP_pressure;BME280_temperature;BME280_humidity;BME280_pressure;Samples;Min_cycle;Max_cycle;Signal;HPM_P1;HPM_P2
2022/10/04 00:01:59;;;;;;;0.40;0.40;;;11.70;99.90;;;;;;5092966;28;20127;-84
2022/10/04 00:04:27;;;;;;;0.40;0.40;;;12.00;99.90;;;;;;5081332;28;20036;-84
2022/10/04 00:07:04;;;;;;;0.30;0.30;;;11.60;99.90;;;;;;5090619;28;20040;-84
2022/10/04 00:09:36;;;;;;;0.30;0.30;;;11.60;99.90;;;;;;5076814;28;20530;-84
2022/10/04 00:12:04;;;;;;;0.30;0.30;;;11.90;99.90;;;;;;5072875;28;20040;-85
2022/10/04 00:14:36;;;;;;;0.30;0.30;;;11.60;99.90;;;;;;5087198;28;20086;-85
2022/10/04 00:17:11;;;;;;;0.30;0.30;;;11.70;99.90;;;;;;5077243;28;20043;-85
2022/10/04 00:19:48;;;;;;;0.30;0.30;;;11.50;99.90;;;;;;5085195;28;20130;-86
2022/10/04 00:22:17;;;;;;;0.40;0.40;;;11.20;99.90;;;;;;5089488;28;20048;-86
2022/10/04 00:25:05;;;;;;;0.40;0.40;;;11.50;99.90;;;;;;5083091;28;20035;-85
2022/10/04 00:27:31;;;;;;;0.70;0.70;;;11.50;99.90;;;;;;5068302;28;20135;-86
2022/10/04 00:30:03;;;;;;;0.50;0.50;;;11.50;99.90;;;;;;5048890;28;20127;-86
2022/10/04 00:32:38;;;;;;;0.30;0.30;;;11.50;99.90;;;;;;5080649;28;20051;-84
2022/10/04 00:35:23;;;;;;;0.30;0.30;;;11.40;99.90;;;;;;5086909;28;20083;-86
2022/10/04 00:38:12;;;;;;;0.35;0.35;;;11.60;99.90;;;;;;5069921;28;20385;-86
2022/10/04 00:41:00;;;;;;;0.40;0.40;;;11.40;99.90;;;;;;5090459;28;20052;-86
2022/10/04 00:43:40;;;;;;;0.45;0.45;;;11.50;99.90;;;;;;5092684;28;20043;-86
2022/10/04 00:46:23;;;;;;;0.40;0.40;;;11.60;99.90;;;;;;5066873;28;20051;-86
2022/10/04 00:48:51;;;;;;;0.40;0.40;;;11.50;99.90;;;;;;5081991;28;20496;-85
2022/10/04 00:51:55;;;;;;;0.30;0.30;;;11.60;99.90;;;;;;5081330;28;20117;-88
2022/10/04 00:54:44;;;;;;;0.40;0.40;;;11.90;99.90;;;;;;5016435;28;20086;-87
2022/10/04 00:57:34;;;;;;;0.55;0.55;;;11.70;99.90;;;;;;5047626;28;20092;-85
2022/10/04 01:00:07;;;;;;;0.40;0.40;;;11.60;99.90;;;;;;5036934;28;20556;-85
2022/10/04 01:02:44;;;;;;;0.50;0.50;;;11.70;99.90;;;;;;5071888;28;20048;-85
2022/10/04 01:05:21;;;;;;;0.30;0.30;;;11.70;99.90;;;;;;5101881;28;20055;-85
2022/10/04 01:07:54;;;;;;;0.30;0.30;;;11.70;99.90;;;;;;5102421;28;20048;-86
2022/10/04 01:10:29;;;;;;;0.22;0.22;;;11.80;99.90;;;;;;5073038;28;20036;-86
2022/10/04 01:13:07;;;;;;;1.25;1.15;;;11.80;99.90;;;;;;5092326;28;20040;-85
2022/10/04 01:15:41;;;;;;;0.30;0.30;;;11.70;99.90;;;;;;5071373;28;20055;-85
2022/10/04 01:18:13;;;;;;;0.45;0.45;;;11.70;99.90;;;;;;5084697;28;20044;-84
2022/10/04 01:20:47;;;;;;;0.30;0.30;;;11.80;99.90;;;;;;5073449;28;20036;-85
2022/10/04 01:23:33;;;;;;;0.40;0.40;;;11.70;99.90;;;;;;5088860;28;20418;-84
2022/10/04 01:25:59;;;;;;;0.50;0.50;;;11.80;99.90;;;;;;5086847;28;20044;-86
2022/10/04 01:28:25;;;;;;;0.47;0.47;;;11.70;99.90;;;;;;5095657;28;20036;-86
2022/10/04 01:30:52;;;;;;;0.45;0.45;;;11.70;99.90;;;;;;5074491;28;20093;-86
2022/10/04 01:33:19;;;;;;;0.30;0.30;;;11.80;99.90;;;;;;5066914;28;20040;-86
2022/10/04 01:35:46;;;;;;;0.30;0.30;;;11.80;99.90;;;;;;5057300;28;20044;-86
2022/10/04 01:38:11;;;;;;;0.63;0.60;;;11.80;99.90;;;;;;5058342;28;20074;-86
2022/10/04 01:40:53;;;;;;;0.30;0.30;;;11.80;99.90;;;;;;5082825;28;20233;-86
2022/10/04 01:43:26;;;;;;;0.30;0.30;;;11.70;99.90;;;;;;5079228;28;20051;-86
2022/10/04 01:46:18;;;;;;;1.35;1.30;;;11.90;99.90;;;;;;5097149;28;20134;-86
2022/10/04 01:48:45;;;;;;;0.73;0.73;;;11.80;99.90;;;;;;5069645;28;20431;-86
2022/10/04 01:51:23;;;;;;;0.45;0.45;;;11.80;99.90;;;;;;5049568;28;20489;-85
2022/10/04 01:53:58;;;;;;;0.50;0.50;;;11.90;99.90;;;;;;5089489;28;20145;-84
2022/10/04 01:56:31;;;;;;;0.25;0.25;;;11.90;99.90;;;;;;5097183;28;20045;-85
2022/10/04 01:59:04;;;;;;;0.45;0.45;;;11.80;99.90;;;;;;5083546;28;20040;-85
2022/10/04 02:01:49;;;;;;;0.30;0.30;;;11.70;99.90;;;;;;5069818;28;20047;-86
2022/10/04 02:04:20;;;;;;;0.60;0.60;;;12.00;99.90;;;;;;5103707;28;20044;-86
2022/10/04 02:06:53;;;;;;;0.30;0.30;;;11.90;99.90;;;;;;5074409;28;20068;-86
2022/10/04 02:09:32;;;;;;;0.35;0.35;;;11.80;99.90;;;;;;5091717;28;20050;-86
2022/10/04 02:11:59;;;;;;;0.57;0.38;;;11.90;99.90;;;;;;5074451;28;20044;-85
2022/10/04 02:14:26;;;;;;;;;;;12.10;99.90;;;;;;5100913;28;20032;-86
2022/10/04 02:16:52;;;;;;;;;;;11.70;99.90;;;;;;5094674;28;19916;-86
2022/10/04 02:19:35;;;;;;;0.55;0.55;;;11.70;99.90;;;;;;5100879;28;19923;-84
2022/10/04 02:22:04;;;;;;;0.30;0.30;;;11.70;99.90;;;;;;5073102;28;20055;-84
2022/10/04 02:24:36;;;;;;;0.57;0.50;;;11.80;99.90;;;;;;5057318;28;20047;-85
2022/10/04 02:27:02;;;;;;;0.40;0.40;;;11.80;99.90;;;;;;5074809;28;20131;-85
2022/10/04 02:29:28;;;;;;;0.95;0.75;;;11.70;99.90;;;;;;5089418;28;20178;-85
2022/10/04 02:34:39;;;;;;;0.40;0.40;;;11.60;99.90;;;;;;5084804;28;20032;-86
2022/10/04 02:37:06;;;;;;;0.82;0.82;;;11.60;99.90;;;;;;5098789;28;20050;-84
2022/10/04 02:40:04;;;;;;;0.75;0.75;;;11.50;99.90;;;;;;5094244;28;20080;-86
2022/10/04 02:42:43;;;;;;;0.43;0.43;;;11.50;99.90;;;;;;5104619;28;20048;-85
2022/10/04 02:45:25;;;;;;;0.63;0.63;;;11.60;99.90;;;;;;5081128;28;20098;-85
2022/10/04 02:48:03;;;;;;;0.35;0.35;;;11.50;99.90;;;;;;5107705;28;20040;-85
2022/10/04 02:50:38;;;;;;;0.82;0.82;;;11.40;99.90;;;;;;5095906;28;20039;-91
2022/10/04 02:53:18;;;;;;;0.40;0.40;;;11.40;99.90;;;;;;5088108;28;20441;-87
2022/10/04 02:55:45;;;;;;;0.40;0.40;;;11.40;99.90;;;;;;5067347;28;20039;-87
2022/10/04 02:58:17;;;;;;;0.40;0.40;;;11.30;99.90;;;;;;5077566;28;20123;-86
2022/10/04 03:00:54;;;;;;;0.88;0.88;;;11.40;99.90;;;;;;5086766;28;20110;-86
2022/10/04 03:03:36;;;;;;;0.40;0.40;;;11.30;99.90;;;;;;5068257;28;20051;-85
2022/10/04 03:06:16;;;;;;;0.40;0.40;;;11.50;99.90;;;;;;5069095;28;20033;-86
2022/10/04 03:09:04;;;;;;;0.68;0.60;;;11.50;99.90;;;;;;5058565;28;20047;-87
2022/10/04 03:11:32;;;;;;;;;;;11.40;99.90;;;;;;5104509;28;20069;-88
2022/10/04 03:14:00;;;;;;;0.38;0.38;;;11.40;99.90;;;;;;5085038;28;19927;-88
2022/10/04 03:16:26;;;;;;;0.40;0.40;;;11.30;99.90;;;;;;5098053;28;20043;-88
2022/10/04 03:18:56;;;;;;;0.40;0.40;;;11.30;99.90;;;;;;5085157;28;20031;-87
2022/10/04 03:21:23;;;;;;;0.32;0.32;;;11.30;99.90;;;;;;5065804;28;20166;-89
2022/10/04 03:23:52;;;;;;;0.50;0.50;;;11.30;99.90;;;;;;5067130;28;20264;-89
2022/10/04 03:26:18;;;;;;;0.40;0.40;;;11.50;99.90;;;;;;5066874;28;20138;-87
2022/10/04 03:28:45;;;;;;;0.30;0.30;;;11.20;99.90;;;;;;5063774;28;20079;-87
2022/10/04 03:31:14;;;;;;;0.52;0.52;;;11.30;99.90;;;;;;5056171;28;20508;-88
2022/10/04 03:33:42;;;;;;;0.50;0.50;;;11.60;99.90;;;;;;5077181;28;20040;-87
2022/10/04 03:36:13;;;;;;;0.30;0.30;;;11.10;99.90;;;;;;5076296;28;20078;-88
2022/10/04 03:38:39;;;;;;;0.40;0.40;;;11.20;99.90;;;;;;5081431;28;20093;-88
2022/10/04 03:41:05;;;;;;;0.30;0.30;;;11.10;99.90;;;;;;5076885;28;20089;-87
2022/10/04 03:43:36;;;;;;;0.50;0.50;;;11.10;99.90;;;;;;5060115;28;20130;-87
2022/10/04 03:46:06;;;;;;;0.40;0.40;;;11.20;99.90;;;;;;5095109;28;20044;-88
2022/10/04 03:48:40;;;;;;;0.30;0.30;;;11.20;99.90;;;;;;5088065;28;20122;-88
2022/10/04 03:51:10;;;;;;;0.85;0.85;;;11.10;99.90;;;;;;5074702;28;20048;-88
2022/10/04 03:53:42;;;;;;;0.20;0.20;;;11.10;99.90;;;;;;5074456;28;20127;-88
2022/10/04 03:56:16;;;;;;;0.40;0.40;;;11.10;99.90;;;;;;5073756;28;20119;-89
2022/10/04 03:58:42;;;;;;;0.50;0.50;;;11.10;99.90;;;;;;5077965;28;20044;-85
2022/10/04 04:01:30;;;;;;;0.40;0.40;;;11.10;99.90;;;;;;5078519;28;20044;-87
2022/10/04 04:04:11;;;;;;;0.40;0.40;;;11.30;99.90;;;;;;5073985;28;20044;-88
2022/10/04 04:06:47;;;;;;;0.40;0.40;;;11.10;99.90;;;;;;5072441;28;20020;-88
2022/10/04 04:09:29;;;;;;;0.82;0.82;;;11.20;99.90;;;;;;5092498;28;20036;-88
2022/10/04 04:11:56;;;;;;;0.40;0.40;;;11.20;99.90;;;;;;5092336;28;20382;-88
2022/10/04 04:14:25;;;;;;;0.40;0.40;;;11.20;99.90;;;;;;5075812;28;20110;-87
2022/10/04 04:17:18;;;;;;;0.60;0.60;;;11.10;99.90;;;;;;5092270;28;20394;-88
2022/10/04 04:19:45;;;;;;;0.60;0.60;;;11.10;99.90;;;;;;5092265;28;20071;-88
2022/10/04 04:22:15;;;;;;;0.45;0.45;;;11.30;99.90;;;;;;5071996;28;20067;-88
2022/10/04 04:24:42;;;;;;;0.40;0.40;;;11.10;99.90;;;;;;5070894;28;20043;-88
2022/10/04 04:27:09;;;;;;;0.52;0.52;;;11.10;99.90;;;;;;5045616;28;20052;-88
2022/10/04 04:29:53;;;;;;;0.80;0.80;;;11.10;99.90;;;;;;5075557;28;20070;-88
2022/10/04 04:32:43;;;;;;;0.60;0.60;;;11.10;99.90;;;;;;5075774;28;20050;-87
2022/10/04 04:35:28;;;;;;;0.40;0.40;;;11.10;99.90;;;;;;5062234;28;20119;-89
2022/10/04 04:38:06;;;;;;;0.50;0.50;;;11.10;99.90;;;;;;5091489;28;20040;-88
2022/10/04 04:40:33;;;;;;;6.32;1.85;;;11.10;99.90;;;;;;5075199;28;20043;-88
2022/10/04 04:43:01;;;;;;;2.75;0.70;;;10.80;99.90;;;;;;5086585;28;20490;-87
2022/10/04 04:45:30;;;;;;;0.70;0.70;;;11.00;99.90;;;;;;5070639;28;20054;-88
2022/10/04 04:47:57;;;;;;;1.50;1.02;;;10.90;99.90;;;;;;5054503;28;20413;-88
2022/10/04 04:50:26;;;;;;;0.35;0.35;;;10.80;99.90;;;;;;5070764;28;20101;-86
2022/10/04 04:53:16;;;;;;;0.40;0.40;;;10.70;99.90;;;;;;5068276;28;20033;-86
2022/10/04 04:55:51;;;;;;;0.70;0.70;;;10.90;99.90;;;;;;5082779;28;20040;-87
2022/10/04 04:58:31;;;;;;;0.50;0.50;;;10.80;99.90;;;;;;5068924;28;20090;-87
2022/10/04 05:01:04;;;;;;;0.50;0.50;;;10.70;99.90;;;;;;5088125;28;20045;-87
2022/10/04 05:03:32;;;;;;;0.55;0.55;;;10.60;99.90;;;;;;5043717;28;20120;-88
2022/10/04 05:06:01;;;;;;;0.57;0.57;;;10.70;99.90;;;;;;5063170;28;20040;-87
2022/10/04 05:08:32;;;;;;;0.80;0.80;;;10.40;99.90;;;;;;5074615;28;20109;-87
2022/10/04 05:11:07;;;;;;;0.50;0.50;;;10.50;99.90;;;;;;5061763;28;20040;-86
2022/10/04 05:13:46;;;;;;;1.13;1.05;;;;;;;;;;5076912;28;20453;-88
2022/10/04 05:16:46;;;;;;;0.50;0.38;;;10.40;99.90;;;;;;5070370;28;20073;-85
2022/10/04 05:19:23;;;;;;;0.40;0.40;;;10.50;99.90;;;;;;5069214;28;20056;-87
2022/10/04 05:21:52;;;;;;;0.57;0.57;;;10.40;99.90;;;;;;5084660;28;20585;-87
2022/10/04 05:24:40;;;;;;;0.50;0.50;;;10.20;99.90;;;;;;5068097;28;20040;-87
2022/10/04 05:27:16;;;;;;;0.50;0.50;;;10.20;99.90;;;;;;5075945;28;20086;-87
2022/10/04 05:30:15;;;;;;;0.50;0.50;;;10.30;99.90;;;;;;5094940;28;20493;-87
2022/10/04 05:33:14;;;;;;;0.43;0.43;;;10.50;99.90;;;;;;5063760;28;20066;-87
2022/10/04 05:35:54;;;;;;;0.50;0.50;;;10.60;99.90;;;;;;5070659;28;20052;-88
2022/10/04 05:38:32;;;;;;;0.55;0.55;;;10.20;99.90;;;;;;5060454;28;20040;-87
2022/10/04 05:41:08;;;;;;;0.45;0.45;;;10.30;99.90;;;;;;5075206;28;20144;-87
2022/10/04 05:43:43;;;;;;;0.45;0.45;;;10.20;99.90;;;;;;5084066;28;20160;-88
2022/10/04 05:46:30;;;;;;;1.90;1.80;;;10.60;99.90;;;;;;5080261;28;20040;-88
2022/10/04 05:49:11;;;;;;;0.40;0.40;;;10.00;99.90;;;;;;5072838;28;20044;-86
2022/10/04 05:52:01;;;;;;;0.60;0.60;;;10.20;99.90;;;;;;5096664;28;20072;-87
2022/10/04 05:54:33;;;;;;;0.60;0.60;;;10.20;99.90;;;;;;5103665;28;20036;-88
2022/10/04 05:57:07;;;;;;;0.82;0.82;;;10.40;99.90;;;;;;5047226;28;20036;-88
2022/10/04 05:59:40;;;;;;;0.43;0.43;;;10.10;99.90;;;;;;5081868;28;20508;-88
2022/10/04 06:02:13;;;;;;;0.47;0.47;;;10.20;99.90;;;;;;5075180;28;20040;-89
2022/10/04 06:05:10;;;;;;;0.80;0.80;;;10.10;99.90;;;;;;5064020;28;20045;-89
2022/10/04 06:07:56;;;;;;;1.08;1.08;;;10.40;99.90;;;;;;5078028;28;20040;-89
2022/10/04 06:10:49;;;;;;;1.13;1.13;;;10.30;99.90;;;;;;5072758;28;20047;-88
2022/10/04 06:13:37;;;;;;;0.40;0.40;;;10.30;99.90;;;;;;5072084;28;20032;-88
2022/10/04 06:16:20;;;;;;;0.40;0.40;;;10.10;99.90;;;;;;5088495;28;20040;-88
2022/10/04 06:19:09;;;;;;;0.70;0.70;;;10.30;99.90;;;;;;5090329;28;20082;-88
2022/10/04 06:22:00;;;;;;;0.47;0.47;;;10.20;99.90;;;;;;5089295;28;20040;-87
2022/10/04 06:24:34;;;;;;;0.50;0.50;;;10.20;99.90;;;;;;5101039;28;20036;-89
2022/10/04 06:27:03;;;;;;;0.70;0.70;;;10.20;99.90;;;;;;5070607;28;20420;-88
2022/10/04 06:29:34;;;;;;;0.57;0.57;;;10.30;99.90;;;;;;5075078;28;20038;-86
2022/10/04 06:32:41;;;;;;;0.40;0.40;;;10.30;99.90;;;;;;5076194;28;20040;-88
2022/10/04 06:35:37;;;;;;;0.50;0.50;;;10.40;99.90;;;;;;5073560;28;20454;-87
2022/10/04 06:38:40;;;;;;;0.47;0.47;;;10.40;99.90;;;;;;5064427;28;20123;-87
2022/10/04 06:41:08;;;;;;;2.45;2.35;;;10.40;99.90;;;;;;5074416;28;20048;-88
2022/10/04 06:43:49;;;;;;;0.50;0.50;;;10.50;99.90;;;;;;5072213;28;20049;-88
2022/10/04 06:46:27;;;;;;;0.50;0.50;;;10.40;99.90;;;;;;5105156;28;20043;-88
2022/10/04 06:49:33;;;;;;;0.50;0.50;;;10.80;99.90;;;;;;5071365;28;20047;-89
2022/10/04 06:52:20;;;;;;;0.60;0.60;;;10.60;99.90;;;;;;5089682;28;20039;-87
2022/10/04 06:54:55;;;;;;;0.73;0.73;;;10.80;99.90;;;;;;5067878;28;20489;-89
2022/10/04 06:58:07;;;;;;;0.52;0.52;;;11.10;99.90;;;;;;5092342;28;20075;-88
2022/10/04 07:01:00;;;;;;;0.47;0.43;;;11.10;99.90;;;;;;5079081;28;20043;-88
2022/10/04 07:03:31;;;;;;;0.40;0.40;;;;;;;;;;5095423;28;20083;-87
2022/10/04 07:06:00;;;;;;;1.05;1.05;;;;;;;;;;5104257;28;20044;-89
2022/10/04 07:08:37;;;;;;;10.13;1.65;;;;;;;;;;5091719;28;20076;-87
2022/10/04 07:11:23;;;;;;;0.35;0.35;;;;;;;;;;5077136;28;20385;-88
2022/10/04 07:13:57;;;;;;;0.80;0.80;;;11.60;99.90;;;;;;5072173;28;20028;-86
2022/10/04 07:16:39;;;;;;;0.80;0.80;;;11.60;99.90;;;;;;5073941;28;20243;-85
2022/10/04 07:19:18;;;;;;;0.85;0.60;;;11.60;99.90;;;;;;5066033;28;20067;-86
2022/10/04 07:22:05;;;;;;;0.65;0.65;;;11.60;99.90;;;;;;5098652;28;20036;-87
2022/10/04 07:24:43;;;;;;;1.05;1.05;;;11.70;99.90;;;;;;5095741;28;20043;-85
2022/10/04 07:27:26;;;;;;;0.63;0.50;;;11.70;99.90;;;;;;5080419;28;20052;-86
2022/10/04 07:29:55;;;;;;;1.17;1.02;;;11.70;99.90;;;;;;5081553;28;20047;-85
2022/10/04 07:32:26;;;;;;;0.52;0.52;;;11.70;99.90;;;;;;5079472;28;20081;-87
2022/10/04 07:35:09;;;;;;;1.20;1.20;;;11.80;99.90;;;;;;5058909;28;20056;-87
2022/10/04 07:38:09;;;;;;;0.80;0.80;;;11.90;99.90;;;;;;5057544;28;20041;-87
2022/10/04 07:41:02;;;;;;;0.47;0.47;;;12.10;99.90;;;;;;5096794;28;20136;-85
2022/10/04 07:43:54;;;;;;;0.40;0.40;;;12.40;99.90;;;;;;5067763;28;20053;-86
2022/10/04 07:46:47;;;;;;;0.50;0.50;;;12.70;99.90;;;;;;5059876;28;20113;-87
2022/10/04 07:49:18;;;;;;;0.68;0.68;;;12.90;99.90;;;;;;5086417;28;20049;-87
2022/10/04 07:51:59;;;;;;;0.65;0.65;;;13.00;99.90;;;;;;5083698;28;20032;-87
2022/10/04 07:54:43;;;;;;;0.43;0.43;;;13.10;99.90;;;;;;5086379;28;20028;-87
2022/10/04 07:57:47;;;;;;;1.08;1.08;;;13.10;99.90;;;;;;5087810;28;20036;-87
2022/10/04 08:00:34;;;;;;;1.00;0.90;;;13.10;99.90;;;;;;5080842;28;20048;-86
2022/10/04 08:03:21;;;;;;;0.60;0.60;;;13.10;99.90;;;;;;5081546;28;20048;-85
2022/10/04 08:05:58;;;;;;;0.47;0.47;;;13.00;99.90;;;;;;5095147;28;20048;-86
2022/10/04 08:08:57;;;;;;;0.40;0.40;;;13.00;99.90;;;;;;5104822;28;20434;-87
2022/10/04 08:12:00;;;;;;;1.02;0.98;;;12.90;99.90;;;;;;5062984;28;20052;-86
2022/10/04 08:14:35;;;;;;;0.38;0.38;;;12.80;99.90;;;;;;5087905;28;20036;-86
2022/10/04 08:17:59;;;;;;;0.50;0.50;;;12.70;99.90;;;;;;5068838;28;20040;-86
2022/10/04 08:20:36;;;;;;;0.85;0.85;;;12.60;99.90;;;;;;5072675;28;20509;-86
2022/10/04 08:23:39;;;;;;;0.30;0.30;;;12.50;99.90;;;;;;5078222;28;20047;-87
2022/10/04 08:26:43;;;;;;;0.95;0.60;;;12.40;99.90;;;;;;5075616;28;20369;-86
2022/10/04 08:32:03;;;;;;;0.65;0.65;;;12.30;99.90;;;;;;5094074;28;20493;-87
2022/10/04 08:35:01;;;;;;;0.30;0.30;;;12.50;99.90;;;;;;5082827;28;20052;-85
2022/10/04 08:37:34;;;;;;;;;;;12.60;99.90;;;;;;5082228;28;20106;-86
2022/10/04 08:40:44;;;;;;;4.78;0.80;;;12.80;99.90;;;;;;5078180;28;20396;-85
2022/10/04 08:43:29;;;;;;;0.50;0.50;;;13.00;99.90;;;;;;5091686;28;20047;-87
2022/10/04 08:45:55;;;;;;;0.55;0.55;;;13.10;99.90;;;;;;5070111;28;20063;-86
2022/10/04 08:48:39;;;;;;;1.27;1.08;;;13.30;99.90;;;;;;5076218;28;20068;-87
2022/10/04 08:51:59;;;;;;;0.32;0.32;;;13.50;99.90;;;;;;5071095;28;20393;-88
2022/10/04 08:54:36;;;;;;;0.75;0.75;;;13.50;99.90;;;;;;5031963;28;20041;-86
2022/10/04 08:57:14;;;;;;;1.13;1.13;;;;;;;;;;5060903;28;20097;-88
2022/10/04 08:59:49;;;;;;;0.55;0.55;;;;;;;;;;5069830;28;20046;-87
2022/10/04 09:02:18;;;;;;;0.52;0.52;;;;;;;;;;5086566;28;20044;-87
2022/10/04 09:04:54;;;;;;;2.75;0.40;;;;;;;;;;5084873;28;20486;-87
2022/10/04 09:07:39;;;;;;;0.70;0.70;;;;;;;;;;5092106;28;20032;-88
2022/10/04 09:10:14;;;;;;;1.40;1.30;;;;;;;;;;5081915;28;20044;-88
2022/10/04 09:12:50;;;;;;;0.50;0.50;;;;;;;;;;5079106;28;20546;-85
2022/10/04 09:15:25;;;;;;;0.70;0.70;;;;;;;;;;5085584;28;20174;-87
2022/10/04 09:18:02;;;;;;;0.88;0.88;;;;;;;;;;5084672;28;20040;-88
2022/10/04 09:20:47;;;;;;;0.50;0.50;;;;;;;;;;5097528;28;20055;-87
2022/10/04 09:23:36;;;;;;;0.35;0.35;;;;;;;;;;5075056;28;20042;-88
2022/10/04 09:26:21;;;;;;;0.65;0.65;;;;;;;;;;5097813;28;20075;-86
2022/10/04 09:28:56;;;;;;;0.45;0.45;;;;;;;;;;5066260;28;20044;-87
2022/10/04 09:31:35;;;;;;;0.40;0.40;;;;;;;;;;5092170;28;20127;-88
2022/10/04 09:34:23;;;;;;;0.30;0.30;;;;;;;;;;5091587;28;20079;-87
2022/10/04 09:37:08;;;;;;;0.52;0.52;;;;;;;;;;5068530;28;20067;-86
2022/10/04 09:39:50;;;;;;;0.50;0.50;;;;;;;;;;5068601;28;20050;-87
2022/10/04 09:42:27;;;;;;;0.50;0.50;;;;;;;;;;5082460;28;20044;-86
2022/10/04 09:45:12;;;;;;;0.50;0.50;;;;;;;;;;5091050;28;20036;-88
2022/10/04 09:47:53;;;;;;;0.82;0.82;;;14.90;99.90;;;;;;5089934;28;20433;-87
2022/10/04 09:50:46;;;;;;;0.30;0.30;;;15.10;99.90;;;;;;5061908;28;20087;-85
2022/10/04 09:53:55;;;;;;;0.43;0.40;;;15.00;99.90;;;;;;5095120;28;20040;-87
2022/10/04 09:56:40;;;;;;;0.52;0.52;;;15.20;99.90;;;;;;5107584;28;20044;-89
2022/10/04 09:59:36;;;;;;;0.30;0.30;;;15.10;99.90;;;;;;5089491;28;20107;-89
2022/10/04 10:02:37;;;;;;;0.30;0.30;;;15.20;99.90;;;;;;5091476;28;20083;-87
2022/10/04 10:05:12;;;;;;;0.68;0.68;;;15.20;99.90;;;;;;5076402;28;20350;-87
2022/10/04 10:07:59;;;;;;;0.40;0.40;;;15.20;99.90;;;;;;5068220;28;20036;-87
2022/10/04 10:13:41;;;;;;;0.40;0.40;;;15.30;99.90;;;;;;5092529;28;20055;-86
2022/10/04 10:16:45;;;;;;;0.30;0.30;;;15.40;99.90;;;;;;5109685;28;20049;-87
2022/10/04 10:19:37;;;;;;;0.43;0.40;;;15.50;99.90;;;;;;5081426;28;20151;-85
2022/10/04 10:22:14;;;;;;;0.77;0.70;;;15.40;99.90;;;;;;5094041;28;20047;-88
2022/10/04 10:24:59;;;;;;;0.40;0.40;;;15.60;99.90;;;;;;5079577;28;20040;-89
2022/10/04 10:27:55;;;;;;;0.60;0.60;;;15.60;99.90;;;;;;5079698;28;20059;-89
2022/10/04 10:30:36;;;;;;;1.92;1.58;;;15.70;99.90;;;;;;5090877;28;20044;-87
2022/10/04 10:33:09;;;;;;;0.40;0.40;;;15.60;99.90;;;;;;5091082;28;20040;-87
2022/10/04 10:35:41;;;;;;;1.67;0.73;;;15.70;99.90;;;;;;5075125;28;20047;-88
2022/10/04 10:38:34;;;;;;;0.28;0.28;;;15.70;99.90;;;;;;5091530;28;20076;-87
2022/10/04 10:41:26;;;;;;;0.47;0.40;;;15.80;99.90;;;;;;5080174;28;20446;-87
2022/10/04 10:44:10;;;;;;;1.70;1.60;;;15.90;99.90;;;;;;5092154;28;20067;-86
2022/10/04 10:47:04;;;;;;;0.40;0.40;;;16.10;99.90;;;;;;5082759;28;20036;-87
2022/10/04 10:50:01;;;;;;;1.10;1.00;;;16.40;99.90;;;;;;5081100;28;20123;-86
2022/10/04 10:52:45;;;;;;;1.33;1.33;;;16.40;99.90;;;;;;5089409;28;20502;-85
2022/10/04 10:55:18;;;;;;;0.80;0.60;;;16.40;99.90;;;;;;5086207;28;20346;-86
2022/10/04 10:58:14;;;;;;;1.05;1.05;;;16.50;99.90;;;;;;5062243;28;20097;-87
2022/10/04 11:00:52;;;;;;;0.30;0.30;;;16.50;99.90;;;;;;5094269;28;20135;-88
2022/10/04 11:03:50;;;;;;;0.50;0.50;;;16.50;99.90;;;;;;5078369;28;20400;-87
2022/10/04 11:06:48;;;;;;;0.50;0.50;;;16.60;99.90;;;;;;5095241;28;20117;-87
2022/10/04 11:09:45;;;;;;;0.30;0.30;;;16.60;99.90;;;;;;5060142;28;20063;-86
2022/10/04 11:13:09;;;;;;;0.47;0.30;;;16.60;99.90;;;;;;5101803;28;20043;-87
2022/10/04 11:16:00;;;;;;;0.60;0.60;;;16.70;99.90;;;;;;5018270;28;20055;-87
2022/10/04 11:18:57;;;;;;;0.47;0.47;;;16.70;99.90;;;;;;5108088;28;20028;-86
2022/10/04 11:21:28;;;;;;;0.50;0.50;;;16.70;99.90;;;;;;5091539;28;20441;-86
2022/10/04 11:24:13;;;;;;;0.32;0.32;;;16.70;99.90;;;;;;5089650;28;20040;-86
2022/10/04 11:26:58;;;;;;;0.50;0.50;;;16.70;99.90;;;;;;5080871;28;20077;-85
2022/10/04 11:29:30;;;;;;;0.40;0.40;;;16.70;99.90;;;;;;5106104;28;20393;-86
2022/10/04 11:31:59;;;;;;;0.30;0.30;;;16.70;99.90;;;;;;5082246;28;20040;-87
2022/10/04 11:34:44;;;;;;;0.50;0.50;;;16.80;99.90;;;;;;5084142;28;20048;-86
2022/10/04 11:37:37;;;;;;;4.03;1.70;;;16.90;99.90;;;;;;5072019;28;20040;-86
2022/10/04 11:40:17;;;;;;;0.35;0.35;;;17.00;99.90;;;;;;5090086;28;20517;-86
2022/10/04 11:42:49;;;;;;;1.63;1.52;;;17.10;99.90;;;;;;5080872;28;20051;-85
2022/10/04 11:45:35;;;;;;;0.88;0.40;;;17.10;99.90;;;;;;5079716;28;20385;-86
2022/10/04 11:48:11;;;;;;;0.30;0.30;;;17.10;99.90;;;;;;5079964;28;20046;-86
2022/10/04 11:50:39;;;;;;;0.73;0.55;;;17.10;99.90;;;;;;5080955;28;20496;-85
2022/10/04 11:53:22;;;;;;;0.50;0.50;;;17.10;99.90;;;;;;5077581;28;20136;-87
2022/10/04 11:56:15;;;;;;;0.90;0.65;;;17.10;99.90;;;;;;5088086;28;20040;-85
2022/10/04 11:59:18;;;;;;;0.82;0.82;;;17.10;99.90;;;;;;5082332;28;20036;-89
2022/10/04 12:02:08;;;;;;;0.30;0.30;;;17.10;99.90;;;;;;5082887;28;20121;-87
2022/10/04 12:04:39;;;;;;;0.65;0.65;;;17.10;99.90;;;;;;5091656;28;20039;-86
2022/10/04 12:07:30;;;;;;;0.47;0.40;;;17.20;99.90;;;;;;5085197;28;20051;-88
2022/10/04 12:10:22;;;;;;;0.52;0.52;;;17.20;99.90;;;;;;5074996;28;20040;-85
2022/10/04 12:12:50;;;;;;;0.95;0.95;;;17.20;99.90;;;;;;5085017;28;20050;-86
2022/10/04 12:16:00;;;;;;;0.30;0.30;;;17.30;99.90;;;;;;5082911;28;20493;-85
2022/10/04 12:18:45;;;;;;;0.90;0.90;;;17.30;99.90;;;;;;5071294;28;20048;-86
2022/10/04 12:21:49;;;;;;;1.10;1.08;;;17.30;99.90;;;;;;5087451;28;20050;-87
2022/10/04 12:24:46;;;;;;;0.47;0.47;;;17.40;99.90;;;;;;5058832;28;20048;-86
2022/10/04 12:27:23;;;;;;;0.95;0.55;;;17.50;99.90;;;;;;5059008;28;20053;-87
2022/10/04 12:30:09;;;;;;;1.20;0.77;;;17.60;99.90;;;;;;5097707;28;20166;-87
2022/10/04 12:33:02;;;;;;;0.43;0.43;;;17.60;99.90;;;;;;5070959;28;20455;-85
2022/10/04 12:36:00;;;;;;;0.40;0.40;;;17.70;99.90;;;;;;5085453;28;20040;-86
2022/10/04 12:38:41;;;;;;;0.28;0.28;;;17.70;99.90;;;;;;5064412;28;20619;-88
2022/10/04 12:41:25;;;;;;;0.82;0.82;;;17.90;99.90;;;;;;5079521;28;20046;-86
2022/10/04 12:44:19;;;;;;;0.95;0.50;;;18.00;99.90;;;;;;5068992;28;20056;-86
2022/10/04 12:47:11;;;;;;;0.47;0.47;;;18.10;99.90;;;;;;5072523;28;20048;-87
2022/10/04 12:49:51;;;;;;;1.60;0.52;;;18.20;99.90;;;;;;5087583;28;20032;-86
2022/10/04 12:52:25;;;;;;;0.30;0.30;;;18.30;99.90;;;;;;5092866;28;20063;-86
2022/10/04 12:55:14;;;;;;;0.60;0.60;;;18.30;99.90;;;;;;5091938;28;20165;-86
2022/10/04 12:57:56;;;;;;;0.50;0.50;;;18.30;99.90;;;;;;5066629;28;20052;-86
2022/10/04 13:00:24;;;;;;;1.08;0.70;;;18.20;99.90;;;;;;5083575;28;20409;-87
2022/10/04 13:03:08;;;;;;;0.70;0.70;;;18.30;99.90;;;;;;5073626;28;20098;-86
2022/10/04 13:05:46;;;;;;;0.85;0.60;;;18.40;99.90;;;;;;5074046;28;20047;-86
2022/10/04 13:08:19;;;;;;;0.40;0.40;;;18.40;99.90;;;;;;5088180;28;20058;-86
2022/10/04 13:10:51;;;;;;;0.43;0.43;;;18.40;99.90;;;;;;5109440;28;20108;-85
2022/10/04 13:13:59;;;;;;;0.50;0.50;;;18.50;99.90;;;;;;5093278;28;20602;-86
2022/10/04 13:16:44;;;;;;;1.80;1.13;;;18.60;99.90;;;;;;5085089;28;20241;-87
2022/10/04 13:19:18;;;;;;;0.60;0.60;;;18.70;99.90;;;;;;5078816;28;20283;-86
2022/10/04 13:21:44;;;;;;;0.32;0.32;;;18.80;99.90;;;;;;5070586;28;20473;-86
2022/10/04 13:24:19;;;;;;;;;;;19.20;99.90;;;;;;5094935;28;20084;-86
2022/10/04 13:27:06;;;;;;;0.50;0.50;;;19.70;99.90;;;;;;5067719;28;19924;-86
2022/10/04 13:29:47;;;;;;;1.00;0.90;;;20.10;99.90;;;;;;5073356;28;20127;-88
2022/10/04 13:32:24;;;;;;;0.20;0.20;;;20.50;99.90;;;;;;5089269;28;20120;-87
2022/10/04 13:35:22;;;;;;;0.63;0.50;;;20.60;99.90;;;;;;5085466;28;20044;-88
2022/10/04 13:38:23;;;;;;;0.20;0.20;;;20.80;99.90;;;;;;5098953;28;20048;-87
2022/10/04 13:41:11;;;;;;;0.60;0.60;;;21.10;99.90;;;;;;5071892;28;20079;-85
2022/10/04 13:43:59;;;;;;;0.70;0.70;;;21.50;99.90;;;;;;5071297;28;20040;-87
2022/10/04 13:46:55;;;;;;;0.70;0.45;;;21.60;99.90;;;;;;5085596;28;20445;-87
2022/10/04 13:49:40;;;;;;;0.50;0.50;;;21.60;99.90;;;;;;5081601;28;20036;-87
2022/10/04 13:58:10;;;;;;;0.20;0.20;;;21.00;99.90;;;;;;5092994;28;20388;-86
2022/10/04 14:01:12;;;;;;;0.30;0.30;;;20.80;99.90;;;;;;5074450;28;20048;-84
2022/10/04 14:03:49;;;;;;;0.45;0.45;;;20.60;99.90;;;;;;5066663;28;20040;-86
2022/10/04 14:06:46;;;;;;;0.70;0.55;;;20.40;99.90;;;;;;5088589;28;20086;-85
2022/10/04 14:09:39;;;;;;;0.43;0.43;;;20.50;99.90;;;;;;5093155;28;20059;-87
2022/10/04 14:12:10;;;;;;;0.52;0.52;;;20.90;99.90;;;;;;5085644;28;20052;-86
2022/10/04 14:15:14;;;;;;;0.57;0.57;;;21.10;99.90;;;;;;5090837;28;20425;-87
2022/10/04 14:17:55;;;;;;;0.30;0.30;;;21.50;99.90;;;;;;5082222;28;20061;-85
2022/10/04 14:20:26;;;;;;;0.30;0.30;;;21.80;99.90;;;;;;5105055;28;20441;-85
2022/10/04 14:23:23;;;;;;;0.40;0.40;;;22.00;99.90;;;;;;5090735;28;21305;-87